sensor_id;sensor_type;location;lat;lon;timestamp;temperature;humidity
8475;DHT22;4274;52.012;8.448;2023-08-06T00:02:13;14.50;99.90
8475;DHT22;4274;52.012;8.448;2023-08-06T00:04:38;14.50;99.90
8475;DHT22;4274;52.012;8.448;2023-08-06T00:07:04;14.50;99.90
8475;DHT22;4274;52.012;8.448;2023-08-06T00:09:30;14.50;99.90
8475;DHT22;4274;52.012;8.448;2023-08-06T00:11:55;14.50;99.90
8475;DHT22;4274;52.012;8.448;2023-08-06T00:14:21;14.50;99.90
8475;DHT22;4274;52.012;8.448;2023-08-06T00:16:47;14.50;99.90
8475;DHT22;4274;52.012;8.448;2023-08-06T00:19:12;14.50;99.90
8475;DHT22;4274;52.012;8.448;2023-08-06T00:21:38;14.50;99.90
8475;DHT22;4274;52.012;8.448;2023-08-06T00:24:04;14.50;99.90
8475;DHT22;4274;52.012;8.448;2023-08-06T00:26:29;14.50;99.90
8475;DHT22;4274;52.012;8.448;2023-08-06T00:28:55;14.50;99.90
8475;DHT22;4274;52.012;8.448;2023-08-06T00:31:20;14.40;99.90
8475;DHT22;4274;52.012;8.448;2023-08-06T00:33:46;14.40;99.90
8475;DHT22;4274;52.012;8.448;2023-08-06T00:36:11;14.50;99.90
8475;DHT22;4274;52.012;8.448;2023-08-06T00:38:37;14.50;99.90
8475;DHT22;4274;52.012;8.448;2023-08-06T00:41:03;14.50;99.90
8475;DHT22;4274;52.012;8.448;2023-08-06T00:43:29;14.50;99.90
8475;DHT22;4274;52.012;8.448;2023-08-06T00:45:55;14.60;99.90
8475;DHT22;4274;52.012;8.448;2023-08-06T00:48:21;14.50;99.90
8475;DHT22;4274;52.012;8.448;2023-08-06T00:50:47;14.50;99.90
8475;DHT22;4274;52.012;8.448;2023-08-06T00:53:12;14.50;99.90
8475;DHT22;4274;52.012;8.448;2023-08-06T00:55:38;14.50;99.90
8475;DHT22;4274;52.012;8.448;2023-08-06T00:58:04;14.50;99.90
8475;DHT22;4274;52.012;8.448;2023-08-06T01:00:30;14.60;99.90
8475;DHT22;4274;52.012;8.448;2023-08-06T01:02:56;14.60;99.90
8475;DHT22;4274;52.012;8.448;2023-08-06T01:05:22;14.60;99.90
8475;DHT22;4274;52.012;8.448;2023-08-06T01:13:11;14.60;99.90
8475;DHT22;4274;52.012;8.448;2023-08-06T01:15:43;14.70;99.90
8475;DHT22;4274;52.012;8.448;2023-08-06T01:18:11;14.60;99.90
8475;DHT22;4274;52.012;8.448;2023-08-06T01:20:37;14.60;99.90
8475;DHT22;4274;52.012;8.448;2023-08-06T01:23:02;14.70;99.90
8475;DHT22;4274;52.012;8.448;2023-08-06T01:28:27;14.70;99.90
8475;DHT22;4274;52.012;8.448;2023-08-06T01:30:59;14.70;99.90
8475;DHT22;4274;52.012;8.448;2023-08-06T01:33:28;14.60;99.90
8475;DHT22;4274;52.012;8.448;2023-08-06T01:35:54;14.60;99.90
8475;DHT22;4274;52.012;8.448;2023-08-06T01:38:20;14.60;99.90
8475;DHT22;4274;52.012;8.448;2023-08-06T01:40:46;14.60;99.90
8475;DHT22;4274;52.012;8.448;2023-08-06T01:43:12;14.60;99.90
8475;DHT22;4274;52.012;8.448;2023-08-06T01:45:38;14.60;99.90
8475;DHT22;4274;52.012;8.448;2023-08-06T01:48:03;14.60;99.90
8475;DHT22;4274;52.012;8.448;2023-08-06T01:50:29;14.60;99.90
8475;DHT22;4274;52.012;8.448;2023-08-06T01:52:54;14.70;99.90
8475;DHT22;4274;52.012;8.448;2023-08-06T01:55:20;14.70;99.90
8475;DHT22;4274;52.012;8.448;2023-08-06T01:57:45;14.70;99.90
8475;DHT22;4274;52.012;8.448;2023-08-06T02:00:11;14.70;99.90
8475;DHT22;4274;52.012;8.448;2023-08-06T02:02:37;14.70;99.90
8475;DHT22;4274;52.012;8.448;2023-08-06T02:05:03;14.70;99.90
8475;DHT22;4274;52.012;8.448;2023-08-06T02:07:29;14.60;99.90
8475;DHT22;4274;52.012;8.448;2023-08-06T02:09:54;14.60;99.90
8475;DHT22;4274;52.012;8.448;2023-08-06T02:12:20;14.60;99.90
8475;DHT22;4274;52.012;8.448;2023-08-06T02:14:45;14.60;99.90
8475;DHT22;4274;52.012;8.448;2023-08-06T02:17:11;14.60;99.90
8475;DHT22;4274;52.012;8.448;2023-08-06T02:19:36;14.60;99.90
8475;DHT22;4274;52.012;8.448;2023-08-06T02:22:02;14.60;99.90
8475;DHT22;4274;52.012;8.448;2023-08-06T02:24:28;14.50;99.90
8475;DHT22;4274;52.012;8.448;2023-08-06T02:26:53;14.50;99.90
8475;DHT22;4274;52.012;8.448;2023-08-06T02:29:21;14.50;99.90
8475;DHT22;4274;52.012;8.448;2023-08-06T02:31:46;14.50;99.90
8475;DHT22;4274;52.012;8.448;2023-08-06T02:34:12;14.50;99.90
8475;DHT22;4274;52.012;8.448;2023-08-06T02:36:37;14.40;99.90
8475;DHT22;4274;52.012;8.448;2023-08-06T02:39:03;14.40;99.90
8475;DHT22;4274;52.012;8.448;2023-08-06T02:41:28;14.40;99.90
8475;DHT22;4274;52.012;8.448;2023-08-06T02:43:54;14.30;99.90
8475;DHT22;4274;52.012;8.448;2023-08-06T02:46:19;14.40;99.90
8475;DHT22;4274;52.012;8.448;2023-08-06T02:48:45;14.40;99.90
8475;DHT22;4274;52.012;8.448;2023-08-06T02:51:11;14.40;99.90
8475;DHT22;4274;52.012;8.448;2023-08-06T02:53:36;14.40;99.90
8475;DHT22;4274;52.012;8.448;2023-08-06T02:56:02;14.40;99.90
8475;DHT22;4274;52.012;8.448;2023-08-06T02:58:28;14.40;99.90
8475;DHT22;4274;52.012;8.448;2023-08-06T03:01:04;14.40;99.90
8475;DHT22;4274;52.012;8.448;2023-08-06T03:03:31;14.40;99.90
8475;DHT22;4274;52.012;8.448;2023-08-06T03:05:57;14.40;99.90
8475;DHT22;4274;52.012;8.448;2023-08-06T03:08:23;14.50;99.90
8475;DHT22;4274;52.012;8.448;2023-08-06T03:10:49;14.50;99.90
8475;DHT22;4274;52.012;8.448;2023-08-06T03:13:16;14.50;99.90
8475;DHT22;4274;52.012;8.448;2023-08-06T03:15:42;14.50;99.90
8475;DHT22;4274;52.012;8.448;2023-08-06T03:18:08;14.50;99.90
8475;DHT22;4274;52.012;8.448;2023-08-06T03:20:33;14.50;99.90
8475;DHT22;4274;52.012;8.448;2023-08-06T03:22:59;14.40;99.90
8475;DHT22;4274;52.012;8.448;2023-08-06T03:25:25;14.40;99.90
8475;DHT22;4274;52.012;8.448;2023-08-06T03:27:50;14.40;99.90
8475;DHT22;4274;52.012;8.448;2023-08-06T03:30:16;14.40;99.90
8475;DHT22;4274;52.012;8.448;2023-08-06T03:32:41;14.40;99.90
8475;DHT22;4274;52.012;8.448;2023-08-06T03:35:07;14.40;99.90
8475;DHT22;4274;52.012;8.448;2023-08-06T03:37:33;14.40;99.90
8475;DHT22;4274;52.012;8.448;2023-08-06T03:39:58;14.40;99.90
8475;DHT22;4274;52.012;8.448;2023-08-06T03:42:24;14.40;99.90
8475;DHT22;4274;52.012;8.448;2023-08-06T03:44:49;14.50;99.90
8475;DHT22;4274;52.012;8.448;2023-08-06T03:47:15;14.50;99.90
8475;DHT22;4274;52.012;8.448;2023-08-06T03:49:40;14.40;99.90
8475;DHT22;4274;52.012;8.448;2023-08-06T03:52:06;14.40;99.90
8475;DHT22;4274;52.012;8.448;2023-08-06T03:54:32;14.40;99.90
8475;DHT22;4274;52.012;8.448;2023-08-06T03:56:57;14.30;99.90
8475;DHT22;4274;52.012;8.448;2023-08-06T03:59:23;14.30;99.90
8475;DHT22;4274;52.012;8.448;2023-08-06T04:01:49;14.30;99.90
8475;DHT22;4274;52.012;8.448;2023-08-06T04:04:14;14.30;99.90
8475;DHT22;4274;52.012;8.448;2023-08-06T04:06:40;14.30;99.90
8475;DHT22;4274;52.012;8.448;2023-08-06T04:09:05;14.30;99.90
8475;DHT22;4274;52.012;8.448;2023-08-06T04:11:31;14.20;99.90
8475;DHT22;4274;52.012;8.448;2023-08-06T04:13:56;14.20;99.90
8475;DHT22;4274;52.012;8.448;2023-08-06T04:16:22;14.20;99.90
8475;DHT22;4274;52.012;8.448;2023-08-06T04:18:47;14.30;99.90
8475;DHT22;4274;52.012;8.448;2023-08-06T04:21:13;14.30;99.90
8475;DHT22;4274;52.012;8.448;2023-08-06T04:23:39;14.30;99.90
8475;DHT22;4274;52.012;8.448;2023-08-06T04:26:04;14.20;99.90
8475;DHT22;4274;52.012;8.448;2023-08-06T04:28:30;14.20;99.90
8475;DHT22;4274;52.012;8.448;2023-08-06T04:30:55;14.20;99.90
8475;DHT22;4274;52.012;8.448;2023-08-06T04:33:21;14.20;99.90
8475;DHT22;4274;52.012;8.448;2023-08-06T04:35:47;14.20;99.90
8475;DHT22;4274;52.012;8.448;2023-08-06T04:38:12;14.20;99.90
8475;DHT22;4274;52.012;8.448;2023-08-06T04:40:38;14.30;99.90
8475;DHT22;4274;52.012;8.448;2023-08-06T04:43:03;14.30;99.90
8475;DHT22;4274;52.012;8.448;2023-08-06T04:45:29;14.30;99.90
8475;DHT22;4274;52.012;8.448;2023-08-06T04:47:54;14.30;99.90
8475;DHT22;4274;52.012;8.448;2023-08-06T04:50:20;14.40;99.90
8475;DHT22;4274;52.012;8.448;2023-08-06T04:52:46;14.40;99.90
8475;DHT22;4274;52.012;8.448;2023-08-06T04:55:11;14.40;99.90
8475;DHT22;4274;52.012;8.448;2023-08-06T04:57:37;14.50;99.90
8475;DHT22;4274;52.012;8.448;2023-08-06T05:00:03;14.50;99.90
8475;DHT22;4274;52.012;8.448;2023-08-06T05:02:30;14.50;99.90
8475;DHT22;4274;52.012;8.448;2023-08-06T05:04:58;14.50;99.90
8475;DHT22;4274;52.012;8.448;2023-08-06T05:07:23;14.50;99.90
8475;DHT22;4274;52.012;8.448;2023-08-06T05:09:49;14.60;99.90
8475;DHT22;4274;52.012;8.448;2023-08-06T05:12:14;14.60;99.90
8475;DHT22;4274;52.012;8.448;2023-08-06T05:14:40;14.60;99.90
8475;DHT22;4274;52.012;8.448;2023-08-06T05:17:05;14.60;99.90
8475;DHT22;4274;52.012;8.448;2023-08-06T05:19:31;14.60;99.90
8475;DHT22;4274;52.012;8.448;2023-08-06T05:21:57;14.60;99.90
8475;DHT22;4274;52.012;8.448;2023-08-06T05:24:22;14.70;99.90
8475;DHT22;4274;52.012;8.448;2023-08-06T05:26:48;14.70;99.90
8475;DHT22;4274;52.012;8.448;2023-08-06T05:29:14;14.70;99.90
8475;DHT22;4274;52.012;8.448;2023-08-06T05:31:39;14.80;99.90
8475;DHT22;4274;52.012;8.448;2023-08-06T05:34:05;14.80;99.90
8475;DHT22;4274;52.012;8.448;2023-08-06T05:36:30;14.90;99.90
8475;DHT22;4274;52.012;8.448;2023-08-06T05:38:56;15.00;99.90
8475;DHT22;4274;52.012;8.448;2023-08-06T05:41:21;15.00;99.90
8475;DHT22;4274;52.012;8.448;2023-08-06T05:43:47;15.00;99.90
8475;DHT22;4274;52.012;8.448;2023-08-06T05:46:12;15.00;99.90
8475;DHT22;4274;52.012;8.448;2023-08-06T05:48:38;15.10;99.90
8475;DHT22;4274;52.012;8.448;2023-08-06T05:51:03;15.10;99.90
8475;DHT22;4274;52.012;8.448;2023-08-06T05:53:29;15.10;99.90
8475;DHT22;4274;52.012;8.448;2023-08-06T05:55:55;15.10;99.90
8475;DHT22;4274;52.012;8.448;2023-08-06T05:58:20;15.20;99.90
8475;DHT22;4274;52.012;8.448;2023-08-06T06:00:46;15.20;99.90
8475;DHT22;4274;52.012;8.448;2023-08-06T06:03:11;15.30;99.90
8475;DHT22;4274;52.012;8.448;2023-08-06T06:05:40;15.30;99.90
8475;DHT22;4274;52.012;8.448;2023-08-06T06:08:05;15.40;99.90
8475;DHT22;4274;52.012;8.448;2023-08-06T06:10:31;15.60;99.90
8475;DHT22;4274;52.012;8.448;2023-08-06T06:12:56;15.70;99.90
8475;DHT22;4274;52.012;8.448;2023-08-06T06:15:22;16.00;99.90
8475;DHT22;4274;52.012;8.448;2023-08-06T06:17:48;16.20;99.90
8475;DHT22;4274;52.012;8.448;2023-08-06T06:20:13;16.40;99.90
8475;DHT22;4274;52.012;8.448;2023-08-06T06:22:39;16.60;99.90
8475;DHT22;4274;52.012;8.448;2023-08-06T06:25:05;16.80;99.90
8475;DHT22;4274;52.012;8.448;2023-08-06T06:27:30;16.90;99.90
8475;DHT22;4274;52.012;8.448;2023-08-06T06:29:56;17.00;99.90
8475;DHT22;4274;52.012;8.448;2023-08-06T06:32:22;17.10;99.90
8475;DHT22;4274;52.012;8.448;2023-08-06T06:34:47;17.20;99.90
8475;DHT22;4274;52.012;8.448;2023-08-06T06:37:13;17.30;99.90
8475;DHT22;4274;52.012;8.448;2023-08-06T06:39:39;17.40;99.90
8475;DHT22;4274;52.012;8.448;2023-08-06T06:42:04;17.50;99.90
8475;DHT22;4274;52.012;8.448;2023-08-06T06:44:30;17.40;99.90
8475;DHT22;4274;52.012;8.448;2023-08-06T06:46:56;17.30;99.90
8475;DHT22;4274;52.012;8.448;2023-08-06T06:49:21;17.20;99.90
8475;DHT22;4274;52.012;8.448;2023-08-06T06:51:47;17.10;99.90
8475;DHT22;4274;52.012;8.448;2023-08-06T06:54:12;17.00;99.90
8475;DHT22;4274;52.012;8.448;2023-08-06T06:56:38;17.00;99.90
8475;DHT22;4274;52.012;8.448;2023-08-06T06:59:04;17.00;99.90
8475;DHT22;4274;52.012;8.448;2023-08-06T07:01:29;17.20;99.90
8475;DHT22;4274;52.012;8.448;2023-08-06T07:03:55;17.40;99.90
8475;DHT22;4274;52.012;8.448;2023-08-06T07:06:20;17.60;99.90
8475;DHT22;4274;52.012;8.448;2023-08-06T07:08:46;17.90;99.90
8475;DHT22;4274;52.012;8.448;2023-08-06T07:11:11;18.00;99.90
8475;DHT22;4274;52.012;8.448;2023-08-06T07:13:37;18.00;99.90
8475;DHT22;4274;52.012;8.448;2023-08-06T07:16:03;18.00;99.90
8475;DHT22;4274;52.012;8.448;2023-08-06T07:18:28;18.00;99.90
8475;DHT22;4274;52.012;8.448;2023-08-06T07:20:54;18.00;99.90
8475;DHT22;4274;52.012;8.448;2023-08-06T07:23:21;18.20;99.90
8475;DHT22;4274;52.012;8.448;2023-08-06T07:25:47;18.20;99.90
8475;DHT22;4274;52.012;8.448;2023-08-06T07:28:14;18.20;99.90
8475;DHT22;4274;52.012;8.448;2023-08-06T07:30:40;18.10;99.90
8475;DHT22;4274;52.012;8.448;2023-08-06T07:33:07;18.10;99.90
8475;DHT22;4274;52.012;8.448;2023-08-06T07:35:32;18.30;99.90
8475;DHT22;4274;52.012;8.448;2023-08-06T07:37:58;18.60;99.90
8475;DHT22;4274;52.012;8.448;2023-08-06T07:40:24;18.70;99.90
8475;DHT22;4274;52.012;8.448;2023-08-06T07:42:50;18.90;99.90
8475;DHT22;4274;52.012;8.448;2023-08-06T07:45:15;19.00;99.90
8475;DHT22;4274;52.012;8.448;2023-08-06T07:47:41;19.10;99.90
8475;DHT22;4274;52.012;8.448;2023-08-06T07:50:08;19.10;99.90
8475;DHT22;4274;52.012;8.448;2023-08-06T07:52:34;19.20;99.90
8475;DHT22;4274;52.012;8.448;2023-08-06T07:55:00;19.40;99.90
8475;DHT22;4274;52.012;8.448;2023-08-06T07:57:27;19.70;99.90
8475;DHT22;4274;52.012;8.448;2023-08-06T07:59:52;19.90;99.90
8475;DHT22;4274;52.012;8.448;2023-08-06T08:02:19;20.20;99.90
8475;DHT22;4274;52.012;8.448;2023-08-06T08:04:45;20.40;99.90
8475;DHT22;4274;52.012;8.448;2023-08-06T08:07:12;20.40;99.90
8475;DHT22;4274;52.012;8.448;2023-08-06T08:09:38;20.40;99.90
8475;DHT22;4274;52.012;8.448;2023-08-06T08:12:04;20.30;99.90
8475;DHT22;4274;52.012;8.448;2023-08-06T08:14:30;20.20;99.90
8475;DHT22;4274;52.012;8.448;2023-08-06T08:17:01;20.10;99.90
8475;DHT22;4274;52.012;8.448;2023-08-06T08:19:28;20.00;99.90
8475;DHT22;4274;52.012;8.448;2023-08-06T08:21:53;20.10;99.90
8475;DHT22;4274;52.012;8.448;2023-08-06T08:24:20;20.10;99.90
8475;DHT22;4274;52.012;8.448;2023-08-06T08:26:46;20.30;99.90
8475;DHT22;4274;52.012;8.448;2023-08-06T08:29:12;20.50;99.90
8475;DHT22;4274;52.012;8.448;2023-08-06T08:31:37;20.40;99.90
8475;DHT22;4274;52.012;8.448;2023-08-06T08:34:05;20.30;99.90
8475;DHT22;4274;52.012;8.448;2023-08-06T08:36:31;20.20;99.90
8475;DHT22;4274;52.012;8.448;2023-08-06T08:38:57;20.00;99.90
8475;DHT22;4274;52.012;8.448;2023-08-06T08:41:23;19.90;99.90
8475;DHT22;4274;52.012;8.448;2023-08-06T08:43:50;19.90;99.90
8475;DHT22;4274;52.012;8.448;2023-08-06T08:46:19;20.00;99.90
8475;DHT22;4274;52.012;8.448;2023-08-06T08:48:45;20.00;99.90
8475;DHT22;4274;52.012;8.448;2023-08-06T08:51:12;19.90;99.90
8475;DHT22;4274;52.012;8.448;2023-08-06T08:53:39;19.70;99.90
8475;DHT22;4274;52.012;8.448;2023-08-06T08:56:05;19.60;99.90
8475;DHT22;4274;52.012;8.448;2023-08-06T08:58:31;19.40;99.90
8475;DHT22;4274;52.012;8.448;2023-08-06T09:00:57;19.70;99.90
8475;DHT22;4274;52.012;8.448;2023-08-06T09:03:23;20.30;99.90
8475;DHT22;4274;52.012;8.448;2023-08-06T09:05:51;21.00;99.90
8475;DHT22;4274;52.012;8.448;2023-08-06T09:08:19;21.40;99.90
8475;DHT22;4274;52.012;8.448;2023-08-06T09:10:48;21.60;99.90
8475;DHT22;4274;52.012;8.448;2023-08-06T09:13:15;21.50;99.90
8475;DHT22;4274;52.012;8.448;2023-08-06T09:15:41;21.60;99.90
8475;DHT22;4274;52.012;8.448;2023-08-06T09:18:10;21.70;99.90
8475;DHT22;4274;52.012;8.448;2023-08-06T09:20:40;21.70;99.90
8475;DHT22;4274;52.012;8.448;2023-08-06T09:23:09;21.60;99.90
8475;DHT22;4274;52.012;8.448;2023-08-06T09:25:38;21.30;99.90
8475;DHT22;4274;52.012;8.448;2023-08-06T09:28:05;20.90;99.90
8475;DHT22;4274;52.012;8.448;2023-08-06T09:30:32;20.60;99.90
8475;DHT22;4274;52.012;8.448;2023-08-06T09:32:58;20.30;99.90
8475;DHT22;4274;52.012;8.448;2023-08-06T09:35:24;20.10;99.90
8475;DHT22;4274;52.012;8.448;2023-08-06T09:37:49;20.00;99.90
8475;DHT22;4274;52.012;8.448;2023-08-06T09:40:31;19.90;99.90
8475;DHT22;4274;52.012;8.448;2023-08-06T09:42:58;19.90;99.90
8475;DHT22;4274;52.012;8.448;2023-08-06T09:45:30;19.90;99.90
8475;DHT22;4274;52.012;8.448;2023-08-06T09:47:56;20.00;99.90
8475;DHT22;4274;52.012;8.448;2023-08-06T09:50:22;20.00;99.90
8475;DHT22;4274;52.012;8.448;2023-08-06T09:52:48;20.30;99.90
8475;DHT22;4274;52.012;8.448;2023-08-06T09:55:16;20.70;99.90
8475;DHT22;4274;52.012;8.448;2023-08-06T09:57:42;21.20;99.90
8475;DHT22;4274;52.012;8.448;2023-08-06T10:00:10;21.40;99.90
8475;DHT22;4274;52.012;8.448;2023-08-06T10:02:37;21.40;99.90
8475;DHT22;4274;52.012;8.448;2023-08-06T10:05:05;21.60;99.90
8475;DHT22;4274;52.012;8.448;2023-08-06T10:07:31;22.20;99.90
8475;DHT22;4274;52.012;8.448;2023-08-06T10:09:58;23.00;99.90
8475;DHT22;4274;52.012;8.448;2023-08-06T10:12:24;23.80;99.90
8475;DHT22;4274;52.012;8.448;2023-08-06T10:14:52;24.40;99.90
8475;DHT22;4274;52.012;8.448;2023-08-06T10:17:20;25.00;99.90
8475;DHT22;4274;52.012;8.448;2023-08-06T10:19:47;25.30;99.90
8475;DHT22;4274;52.012;8.448;2023-08-06T10:22:15;25.90;99.90
8475;DHT22;4274;52.012;8.448;2023-08-06T10:24:54;26.00;99.90
8475;DHT22;4274;52.012;8.448;2023-08-06T10:27:29;26.30;99.90
8475;DHT22;4274;52.012;8.448;2023-08-06T10:30:09;26.40;99.90
8475;DHT22;4274;52.012;8.448;2023-08-06T10:32:49;26.70;99.90
8475;DHT22;4274;52.012;8.448;2023-08-06T10:35:48;27.30;99.90
8475;DHT22;4274;52.012;8.448;2023-08-06T10:38:15;27.10;99.90
8475;DHT22;4274;52.012;8.448;2023-08-06T10:43:30;25.50;99.90
8475;DHT22;4274;52.012;8.448;2023-08-06T10:45:58;24.70;99.90
8475;DHT22;4274;52.012;8.448;2023-08-06T10:48:35;24.30;99.90
8475;DHT22;4274;52.012;8.448;2023-08-06T10:51:02;23.80;99.90
8475;DHT22;4274;52.012;8.448;2023-08-06T10:53:28;23.60;99.90
8475;DHT22;4274;52.012;8.448;2023-08-06T10:55:54;23.70;99.90
8475;DHT22;4274;52.012;8.448;2023-08-06T10:58:19;23.80;99.90
8475;DHT22;4274;52.012;8.448;2023-08-06T11:00:46;23.90;99.90
8475;DHT22;4274;52.012;8.448;2023-08-06T11:03:11;24.00;99.90
8475;DHT22;4274;52.012;8.448;2023-08-06T11:05:37;24.10;99.90
8475;DHT22;4274;52.012;8.448;2023-08-06T11:08:03;24.40;99.90
8475;DHT22;4274;52.012;8.448;2023-08-06T11:10:28;24.80;99.90
8475;DHT22;4274;52.012;8.448;2023-08-06T11:12:54;25.20;99.90
8475;DHT22;4274;52.012;8.448;2023-08-06T11:15:22;25.60;99.90
8475;DHT22;4274;52.012;8.448;2023-08-06T11:17:50;26.40;99.90
8475;DHT22;4274;52.012;8.448;2023-08-06T11:20:15;27.70;99.90
8475;DHT22;4274;52.012;8.448;2023-08-06T11:22:41;28.80;99.90
8475;DHT22;4274;52.012;8.448;2023-08-06T11:25:07;29.60;99.90
8475;DHT22;4274;52.012;8.448;2023-08-06T11:27:33;29.70;99.90
8475;DHT22;4274;52.012;8.448;2023-08-06T11:29:58;29.50;99.90
8475;DHT22;4274;52.012;8.448;2023-08-06T11:32:24;29.50;99.90
8475;DHT22;4274;52.012;8.448;2023-08-06T11:34:50;29.90;99.90
8475;DHT22;4274;52.012;8.448;2023-08-06T11:37:16;30.60;99.90
8475;DHT22;4274;52.012;8.448;2023-08-06T11:39:46;31.30;99.90
8475;DHT22;4274;52.012;8.448;2023-08-06T11:42:13;31.70;99.90
8475;DHT22;4274;52.012;8.448;2023-08-06T11:44:40;31.50;99.90
8475;DHT22;4274;52.012;8.448;2023-08-06T11:47:13;30.10;99.90
8475;DHT22;4274;52.012;8.448;2023-08-06T11:49:49;29.20;99.90
8475;DHT22;4274;52.012;8.448;2023-08-06T11:52:18;28.20;99.90
8475;DHT22;4274;52.012;8.448;2023-08-06T11:54:46;27.30;99.90
8475;DHT22;4274;52.012;8.448;2023-08-06T11:57:12;26.90;99.90
8475;DHT22;4274;52.012;8.448;2023-08-06T11:59:39;26.90;99.90
8475;DHT22;4274;52.012;8.448;2023-08-06T12:02:07;27.40;99.90
8475;DHT22;4274;52.012;8.448;2023-08-06T12:05:04;28.20;99.90
8475;DHT22;4274;52.012;8.448;2023-08-06T12:07:31;29.00;99.90
8475;DHT22;4274;52.012;8.448;2023-08-06T12:09:58;28.60;99.90
8475;DHT22;4274;52.012;8.448;2023-08-06T12:12:24;28.20;99.90
8475;DHT22;4274;52.012;8.448;2023-08-06T12:14:50;27.70;99.90
8475;DHT22;4274;52.012;8.448;2023-08-06T12:17:15;27.20;99.90
8475;DHT22;4274;52.012;8.448;2023-08-06T12:19:41;26.50;99.90
8475;DHT22;4274;52.012;8.448;2023-08-06T12:22:06;25.40;99.90
8475;DHT22;4274;52.012;8.448;2023-08-06T12:24:32;24.70;99.90
8475;DHT22;4274;52.012;8.448;2023-08-06T12:26:58;24.10;99.90
8475;DHT22;4274;52.012;8.448;2023-08-06T12:29:25;23.70;99.90
8475;DHT22;4274;52.012;8.448;2023-08-06T12:31:51;23.30;99.90
8475;DHT22;4274;52.012;8.448;2023-08-06T12:34:16;23.00;99.90
8475;DHT22;4274;52.012;8.448;2023-08-06T12:36:42;22.70;99.90
8475;DHT22;4274;52.012;8.448;2023-08-06T12:39:07;22.50;99.90
8475;DHT22;4274;52.012;8.448;2023-08-06T12:41:33;22.40;99.90
8475;DHT22;4274;52.012;8.448;2023-08-06T12:43:58;22.20;99.90
8475;DHT22;4274;52.012;8.448;2023-08-06T12:46:24;22.10;99.90
8475;DHT22;4274;52.012;8.448;2023-08-06T12:48:49;22.00;99.90
8475;DHT22;4274;52.012;8.448;2023-08-06T12:51:16;21.90;99.90
8475;DHT22;4274;52.012;8.448;2023-08-06T12:53:41;21.80;99.90
8475;DHT22;4274;52.012;8.448;2023-08-06T12:56:07;21.60;99.90
8475;DHT22;4274;52.012;8.448;2023-08-06T12:58:33;21.60;99.90
8475;DHT22;4274;52.012;8.448;2023-08-06T13:00:58;21.40;99.90
8475;DHT22;4274;52.012;8.448;2023-08-06T13:03:24;21.40;99.90
8475;DHT22;4274;52.012;8.448;2023-08-06T13:05:50;21.40;99.90
8475;DHT22;4274;52.012;8.448;2023-08-06T13:08:16;21.50;99.90
8475;DHT22;4274;52.012;8.448;2023-08-06T13:10:42;21.50;99.90
8475;DHT22;4274;52.012;8.448;2023-08-06T13:13:07;21.50;99.90
8475;DHT22;4274;52.012;8.448;2023-08-06T13:15:35;21.50;99.90
8475;DHT22;4274;52.012;8.448;2023-08-06T13:18:01;21.60;99.90
8475;DHT22;4274;52.012;8.448;2023-08-06T13:20:26;21.50;99.90
8475;DHT22;4274;52.012;8.448;2023-08-06T13:22:52;21.40;99.90
8475;DHT22;4274;52.012;8.448;2023-08-06T13:25:19;21.20;99.90
8475;DHT22;4274;52.012;8.448;2023-08-06T13:27:44;21.10;99.90
8475;DHT22;4274;52.012;8.448;2023-08-06T13:30:11;21.00;99.90
8475;DHT22;4274;52.012;8.448;2023-08-06T13:32:37;20.90;99.90
8475;DHT22;4274;52.012;8.448;2023-08-06T13:35:05;20.70;99.90
8475;DHT22;4274;52.012;8.448;2023-08-06T13:37:31;20.50;99.90
8475;DHT22;4274;52.012;8.448;2023-08-06T13:39:56;20.20;99.90
8475;DHT22;4274;52.012;8.448;2023-08-06T13:42:22;19.90;99.90
8475;DHT22;4274;52.012;8.448;2023-08-06T13:44:48;19.70;99.90
8475;DHT22;4274;52.012;8.448;2023-08-06T13:47:13;19.50;99.90
8475;DHT22;4274;52.012;8.448;2023-08-06T13:49:39;19.40;99.90
8475;DHT22;4274;52.012;8.448;2023-08-06T13:52:04;19.20;99.90
8475;DHT22;4274;52.012;8.448;2023-08-06T13:54:30;19.10;99.90
8475;DHT22;4274;52.012;8.448;2023-08-06T13:56:56;19.10;99.90
8475;DHT22;4274;52.012;8.448;2023-08-06T13:59:21;18.90;99.90
8475;DHT22;4274;52.012;8.448;2023-08-06T14:01:49;18.80;99.90
8475;DHT22;4274;52.012;8.448;2023-08-06T14:04:15;18.70;99.90
8475;DHT22;4274;52.012;8.448;2023-08-06T14:06:41;18.40;99.90
8475;DHT22;4274;52.012;8.448;2023-08-06T14:09:07;18.20;99.90
8475;DHT22;4274;52.012;8.448;2023-08-06T14:11:33;18.00;99.90
8475;DHT22;4274;52.012;8.448;2023-08-06T14:13:59;17.80;99.90
8475;DHT22;4274;52.012;8.448;2023-08-06T14:16:25;17.50;99.90
8475;DHT22;4274;52.012;8.448;2023-08-06T14:18:51;17.40;99.90
8475;DHT22;4274;52.012;8.448;2023-08-06T14:21:16;17.30;99.90
8475;DHT22;4274;52.012;8.448;2023-08-06T14:23:42;17.20;99.90
8475;DHT22;4274;52.012;8.448;2023-08-06T14:26:07;17.10;99.90
8475;DHT22;4274;52.012;8.448;2023-08-06T14:28:35;16.90;99.90
8475;DHT22;4274;52.012;8.448;2023-08-06T14:31:02;16.80;99.90
8475;DHT22;4274;52.012;8.448;2023-08-06T14:33:27;16.80;99.90
8475;DHT22;4274;52.012;8.448;2023-08-06T14:35:53;16.80;99.90
8475;DHT22;4274;52.012;8.448;2023-08-06T14:38:18;16.70;99.90
8475;DHT22;4274;52.012;8.448;2023-08-06T14:40:44;16.70;99.90
8475;DHT22;4274;52.012;8.448;2023-08-06T14:43:10;16.70;99.90
8475;DHT22;4274;52.012;8.448;2023-08-06T14:45:41;16.70;99.90
8475;DHT22;4274;52.012;8.448;2023-08-06T14:48:07;16.70;99.90
8475;DHT22;4274;52.012;8.448;2023-08-06T14:50:32;16.60;99.90
8475;DHT22;4274;52.012;8.448;2023-08-06T14:52:58;16.60;99.90
8475;DHT22;4274;52.012;8.448;2023-08-06T14:55:27;16.60;99.90
8475;DHT22;4274;52.012;8.448;2023-08-06T14:57:53;16.50;99.90
8475;DHT22;4274;52.012;8.448;2023-08-06T15:00:19;16.50;99.90
8475;DHT22;4274;52.012;8.448;2023-08-06T15:02:45;16.40;99.90
8475;DHT22;4274;52.012;8.448;2023-08-06T15:05:11;16.30;99.90
8475;DHT22;4274;52.012;8.448;2023-08-06T15:07:37;16.30;99.90
8475;DHT22;4274;52.012;8.448;2023-08-06T15:10:04;16.30;99.90
8475;DHT22;4274;52.012;8.448;2023-08-06T15:12:30;16.30;99.90
8475;DHT22;4274;52.012;8.448;2023-08-06T15:14:56;16.30;99.90
8475;DHT22;4274;52.012;8.448;2023-08-06T15:17:22;16.40;99.90
8475;DHT22;4274;52.012;8.448;2023-08-06T15:19:48;16.40;99.90
8475;DHT22;4274;52.012;8.448;2023-08-06T15:22:14;16.50;99.90
8475;DHT22;4274;52.012;8.448;2023-08-06T15:24:40;16.50;99.90
8475;DHT22;4274;52.012;8.448;2023-08-06T15:27:08;16.60;99.90
8475;DHT22;4274;52.012;8.448;2023-08-06T15:29:34;16.60;99.90
8475;DHT22;4274;52.012;8.448;2023-08-06T15:31:59;16.60;99.90
8475;DHT22;4274;52.012;8.448;2023-08-06T15:34:25;16.60;99.90
8475;DHT22;4274;52.012;8.448;2023-08-06T15:36:51;16.70;99.90
8475;DHT22;4274;52.012;8.448;2023-08-06T15:39:16;16.70;99.90
8475;DHT22;4274;52.012;8.448;2023-08-06T15:41:42;16.70;99.90
8475;DHT22;4274;52.012;8.448;2023-08-06T15:44:07;16.70;99.90
8475;DHT22;4274;52.012;8.448;2023-08-06T15:46:33;16.60;99.90
8475;DHT22;4274;52.012;8.448;2023-08-06T15:49:01;16.60;99.90
8475;DHT22;4274;52.012;8.448;2023-08-06T15:51:26;16.50;99.90
8475;DHT22;4274;52.012;8.448;2023-08-06T15:53:52;16.40;99.90
8475;DHT22;4274;52.012;8.448;2023-08-06T15:56:17;16.40;99.90
8475;DHT22;4274;52.012;8.448;2023-08-06T15:58:43;16.30;99.90
8475;DHT22;4274;52.012;8.448;2023-08-06T16:01:09;16.20;99.90
8475;DHT22;4274;52.012;8.448;2023-08-06T16:03:34;16.00;99.90
8475;DHT22;4274;52.012;8.448;2023-08-06T16:06:00;15.90;99.90
8475;DHT22;4274;52.012;8.448;2023-08-06T16:08:26;15.80;99.90